sensor_id;sensor_type;location;lat;lon;timestamp;P1;durP1;ratioP1;P2;durP2;ratioP2
3259;SDS011;22469;48.150;14.004;2022-10-16T00:01:42;21.97;;;10.47;;
3259;SDS011;22469;48.150;14.004;2022-10-16T00:04:09;18.50;;;10.20;;
3259;SDS011;22469;48.150;14.004;2022-10-16T00:06:37;12.10;;;10.67;;
3259;SDS011;22469;48.150;14.004;2022-10-16T00:09:04;11.87;;;10.50;;
3259;SDS011;22469;48.150;14.004;2022-10-16T00:11:33;13.87;;;11.43;;
3259;SDS011;22469;48.150;14.004;2022-10-16T00:14:09;16.17;;;10.67;;
3259;SDS011;22469;48.150;14.004;2022-10-16T00:16:39;16.00;;;10.17;;
3259;SDS011;22469;48.150;14.004;2022-10-16T00:19:07;18.33;;;10.43;;
3259;SDS011;22469;48.150;14.004;2022-10-16T00:21:37;31.13;;;11.53;;
3259;SDS011;22469;48.150;14.004;2022-10-16T00:24:06;17.93;;;10.80;;
3259;SDS011;22469;48.150;14.004;2022-10-16T00:26:35;11.67;;;10.10;;
3259;SDS011;22469;48.150;14.004;2022-10-16T00:29:05;14.33;;;11.70;;
3259;SDS011;22469;48.150;14.004;2022-10-16T00:31:34;12.53;;;10.93;;
3259;SDS011;22469;48.150;14.004;2022-10-16T00:34:02;11.43;;;10.53;;
3259;SDS011;22469;48.150;14.004;2022-10-16T00:36:29;10.87;;;9.87;;
3259;SDS011;22469;48.150;14.004;2022-10-16T00:38:57;12.00;;;10.57;;
3259;SDS011;22469;48.150;14.004;2022-10-16T00:41:32;11.67;;;10.47;;
3259;SDS011;22469;48.150;14.004;2022-10-16T00:44:01;11.40;;;10.40;;
3259;SDS011;22469;48.150;14.004;2022-10-16T00:46:40;16.40;;;10.57;;
3259;SDS011;22469;48.150;14.004;2022-10-16T00:49:13;16.40;;;12.13;;
3259;SDS011;22469;48.150;14.004;2022-10-16T00:51:45;11.97;;;10.47;;
3259;SDS011;22469;48.150;14.004;2022-10-16T00:54:19;13.80;;;9.83;;
3259;SDS011;22469;48.150;14.004;2022-10-16T00:56:50;18.80;;;11.27;;
3259;SDS011;22469;48.150;14.004;2022-10-16T00:59:19;13.00;;;9.50;;
3259;SDS011;22469;48.150;14.004;2022-10-16T01:01:51;13.97;;;9.53;;
3259;SDS011;22469;48.150;14.004;2022-10-16T01:04:20;11.60;;;9.83;;
3259;SDS011;22469;48.150;14.004;2022-10-16T01:07:10;11.20;;;9.50;;
3259;SDS011;22469;48.150;14.004;2022-10-16T01:18:26;16.03;;;8.57;;
3259;SDS011;22469;48.150;14.004;2022-10-16T01:21:08;17.60;;;9.47;;
3259;SDS011;22469;48.150;14.004;2022-10-16T01:29:28;15.93;;;11.20;;
3259;SDS011;22469;48.150;14.004;2022-10-16T01:32:04;17.40;;;11.33;;
3259;SDS011;22469;48.150;14.004;2022-10-16T01:34:45;14.87;;;10.17;;
3259;SDS011;22469;48.150;14.004;2022-10-16T01:37:22;18.70;;;10.10;;
3259;SDS011;22469;48.150;14.004;2022-10-16T01:40:02;21.73;;;11.20;;
3259;SDS011;22469;48.150;14.004;2022-10-16T01:42:45;28.53;;;11.27;;
3259;SDS011;22469;48.150;14.004;2022-10-16T01:45:18;21.07;;;11.33;;
3259;SDS011;22469;48.150;14.004;2022-10-16T01:47:46;16.23;;;10.30;;
3259;SDS011;22469;48.150;14.004;2022-10-16T01:50:16;20.17;;;9.00;;
3259;SDS011;22469;48.150;14.004;2022-10-16T01:52:47;21.77;;;9.40;;
3259;SDS011;22469;48.150;14.004;2022-10-16T01:55:19;20.83;;;8.80;;
3259;SDS011;22469;48.150;14.004;2022-10-16T01:58:00;33.47;;;10.33;;
3259;SDS011;22469;48.150;14.004;2022-10-16T02:00:29;21.47;;;9.80;;
3259;SDS011;22469;48.150;14.004;2022-10-16T02:02:57;17.33;;;9.77;;
3259;SDS011;22469;48.150;14.004;2022-10-16T02:05:31;21.67;;;9.53;;
3259;SDS011;22469;48.150;14.004;2022-10-16T02:08:05;23.57;;;9.03;;
3259;SDS011;22469;48.150;14.004;2022-10-16T02:10:32;18.53;;;9.23;;
3259;SDS011;22469;48.150;14.004;2022-10-16T02:13:06;10.37;;;8.97;;
3259;SDS011;22469;48.150;14.004;2022-10-16T02:15:44;16.73;;;9.90;;
3259;SDS011;22469;48.150;14.004;2022-10-16T02:18:11;15.70;;;9.50;;
3259;SDS011;22469;48.150;14.004;2022-10-16T02:20:52;11.10;;;9.50;;
3259;SDS011;22469;48.150;14.004;2022-10-16T02:26:27;9.90;;;9.00;;
3259;SDS011;22469;48.150;14.004;2022-10-16T02:29:20;10.30;;;9.43;;
3259;SDS011;22469;48.150;14.004;2022-10-16T02:31:54;9.03;;;8.33;;
3259;SDS011;22469;48.150;14.004;2022-10-16T02:34:27;9.67;;;8.97;;
3259;SDS011;22469;48.150;14.004;2022-10-16T02:36:57;10.73;;;8.37;;
3259;SDS011;22469;48.150;14.004;2022-10-16T02:39:27;9.37;;;8.67;;
3259;SDS011;22469;48.150;14.004;2022-10-16T02:41:56;9.53;;;8.07;;
3259;SDS011;22469;48.150;14.004;2022-10-16T02:44:23;8.70;;;7.90;;
3259;SDS011;22469;48.150;14.004;2022-10-16T02:46:50;13.67;;;8.93;;
3259;SDS011;22469;48.150;14.004;2022-10-16T02:49:17;25.73;;;9.40;;
3259;SDS011;22469;48.150;14.004;2022-10-16T02:51:45;29.73;;;11.10;;
3259;SDS011;22469;48.150;14.004;2022-10-16T02:54:12;15.43;;;10.40;;
3259;SDS011;22469;48.150;14.004;2022-10-16T02:56:39;27.67;;;11.07;;
3259;SDS011;22469;48.150;14.004;2022-10-16T02:59:06;34.20;;;11.93;;
3259;SDS011;22469;48.150;14.004;2022-10-16T03:01:33;19.80;;;11.07;;
3259;SDS011;22469;48.150;14.004;2022-10-16T03:04:02;26.33;;;12.63;;
3259;SDS011;22469;48.150;14.004;2022-10-16T03:06:29;22.03;;;11.93;;
3259;SDS011;22469;48.150;14.004;2022-10-16T03:08:56;16.60;;;11.50;;
3259;SDS011;22469;48.150;14.004;2022-10-16T03:11:23;17.97;;;11.60;;
3259;SDS011;22469;48.150;14.004;2022-10-16T03:13:50;16.67;;;11.13;;
3259;SDS011;22469;48.150;14.004;2022-10-16T03:16:16;16.83;;;12.23;;
3259;SDS011;22469;48.150;14.004;2022-10-16T03:18:47;21.83;;;11.97;;
3259;SDS011;22469;48.150;14.004;2022-10-16T03:21:16;23.77;;;12.10;;
3259;SDS011;22469;48.150;14.004;2022-10-16T03:23:43;34.80;;;13.20;;
3259;SDS011;22469;48.150;14.004;2022-10-16T03:26:10;30.47;;;11.30;;
3259;SDS011;22469;48.150;14.004;2022-10-16T03:28:37;19.60;;;11.53;;
3259;SDS011;22469;48.150;14.004;2022-10-16T03:31:04;36.53;;;13.37;;
3259;SDS011;22469;48.150;14.004;2022-10-16T03:33:31;22.13;;;11.93;;
3259;SDS011;22469;48.150;14.004;2022-10-16T03:35:58;16.80;;;12.73;;
3259;SDS011;22469;48.150;14.004;2022-10-16T03:38:25;28.30;;;13.10;;
3259;SDS011;22469;48.150;14.004;2022-10-16T03:40:52;22.53;;;13.37;;
3259;SDS011;22469;48.150;14.004;2022-10-16T03:43:19;24.53;;;13.13;;
3259;SDS011;22469;48.150;14.004;2022-10-16T03:45:46;16.27;;;14.13;;
3259;SDS011;22469;48.150;14.004;2022-10-16T03:48:13;27.03;;;15.20;;
3259;SDS011;22469;48.150;14.004;2022-10-16T03:50:40;16.83;;;15.00;;
3259;SDS011;22469;48.150;14.004;2022-10-16T03:53:07;16.43;;;14.27;;
3259;SDS011;22469;48.150;14.004;2022-10-16T03:55:34;15.90;;;14.43;;
3259;SDS011;22469;48.150;14.004;2022-10-16T03:58:02;20.03;;;14.13;;
3259;SDS011;22469;48.150;14.004;2022-10-16T04:00:28;23.53;;;14.10;;
3259;SDS011;22469;48.150;14.004;2022-10-16T04:02:55;29.27;;;16.33;;
3259;SDS011;22469;48.150;14.004;2022-10-16T04:05:22;42.93;;;14.40;;
3259;SDS011;22469;48.150;14.004;2022-10-16T04:07:49;21.93;;;15.20;;
3259;SDS011;22469;48.150;14.004;2022-10-16T04:10:16;33.73;;;14.50;;
3259;SDS011;22469;48.150;14.004;2022-10-16T04:12:44;31.67;;;14.00;;
3259;SDS011;22469;48.150;14.004;2022-10-16T04:15:11;26.93;;;13.63;;
3259;SDS011;22469;48.150;14.004;2022-10-16T04:17:38;21.13;;;12.57;;
3259;SDS011;22469;48.150;14.004;2022-10-16T04:20:05;17.87;;;11.77;;
3259;SDS011;22469;48.150;14.004;2022-10-16T04:22:33;23.30;;;12.00;;
3259;SDS011;22469;48.150;14.004;2022-10-16T04:25:00;16.17;;;11.17;;
3259;SDS011;22469;48.150;14.004;2022-10-16T04:27:27;32.33;;;11.80;;
3259;SDS011;22469;48.150;14.004;2022-10-16T04:29:55;26.80;;;12.43;;
3259;SDS011;22469;48.150;14.004;2022-10-16T04:32:22;26.10;;;12.40;;
3259;SDS011;22469;48.150;14.004;2022-10-16T04:34:49;28.97;;;14.20;;
3259;SDS011;22469;48.150;14.004;2022-10-16T04:37:15;14.10;;;11.53;;
3259;SDS011;22469;48.150;14.004;2022-10-16T04:39:42;16.70;;;11.30;;
3259;SDS011;22469;48.150;14.004;2022-10-16T04:42:10;11.80;;;10.33;;
3259;SDS011;22469;48.150;14.004;2022-10-16T04:44:37;14.97;;;10.13;;
3259;SDS011;22469;48.150;14.004;2022-10-16T04:47:04;24.07;;;10.97;;
3259;SDS011;22469;48.150;14.004;2022-10-16T04:49:31;10.17;;;9.00;;
3259;SDS011;22469;48.150;14.004;2022-10-16T04:51:58;12.90;;;8.33;;
3259;SDS011;22469;48.150;14.004;2022-10-16T04:54:25;23.40;;;10.80;;
3259;SDS011;22469;48.150;14.004;2022-10-16T04:56:52;21.07;;;9.70;;
3259;SDS011;22469;48.150;14.004;2022-10-16T04:59:20;14.07;;;9.17;;
3259;SDS011;22469;48.150;14.004;2022-10-16T05:01:49;23.87;;;10.17;;
3259;SDS011;22469;48.150;14.004;2022-10-16T05:04:16;19.23;;;9.47;;
3259;SDS011;22469;48.150;14.004;2022-10-16T05:06:43;18.50;;;8.60;;
3259;SDS011;22469;48.150;14.004;2022-10-16T05:09:10;17.93;;;7.70;;
3259;SDS011;22469;48.150;14.004;2022-10-16T05:11:37;10.57;;;8.60;;
3259;SDS011;22469;48.150;14.004;2022-10-16T05:14:04;27.13;;;9.97;;
3259;SDS011;22469;48.150;14.004;2022-10-16T05:16:31;45.87;;;10.03;;
3259;SDS011;22469;48.150;14.004;2022-10-16T05:18:58;40.30;;;11.80;;
3259;SDS011;22469;48.150;14.004;2022-10-16T05:21:45;60.20;;;11.00;;
3259;SDS011;22469;48.150;14.004;2022-10-16T05:24:12;50.13;;;11.07;;
3259;SDS011;22469;48.150;14.004;2022-10-16T05:26:40;25.03;;;9.13;;
3259;SDS011;22469;48.150;14.004;2022-10-16T05:29:07;41.57;;;11.33;;
3259;SDS011;22469;48.150;14.004;2022-10-16T05:31:35;38.60;;;12.33;;
3259;SDS011;22469;48.150;14.004;2022-10-16T05:34:02;40.53;;;12.50;;
3259;SDS011;22469;48.150;14.004;2022-10-16T05:36:29;38.10;;;12.67;;
3259;SDS011;22469;48.150;14.004;2022-10-16T05:38:56;33.97;;;13.50;;
3259;SDS011;22469;48.150;14.004;2022-10-16T05:41:23;65.77;;;14.60;;
3259;SDS011;22469;48.150;14.004;2022-10-16T05:43:52;26.60;;;12.30;;
3259;SDS011;22469;48.150;14.004;2022-10-16T05:46:20;50.97;;;14.30;;
3259;SDS011;22469;48.150;14.004;2022-10-16T05:48:47;46.67;;;14.60;;
3259;SDS011;22469;48.150;14.004;2022-10-16T05:51:14;22.40;;;12.77;;
3259;SDS011;22469;48.150;14.004;2022-10-16T05:53:42;41.40;;;12.47;;
3259;SDS011;22469;48.150;14.004;2022-10-16T05:56:10;22.10;;;12.60;;
3259;SDS011;22469;48.150;14.004;2022-10-16T05:58:39;48.20;;;14.23;;
3259;SDS011;22469;48.150;14.004;2022-10-16T06:01:09;27.03;;;11.10;;
3259;SDS011;22469;48.150;14.004;2022-10-16T06:03:39;29.93;;;14.50;;
3259;SDS011;22469;48.150;14.004;2022-10-16T06:06:07;37.67;;;12.80;;
3259;SDS011;22469;48.150;14.004;2022-10-16T06:08:40;51.07;;;12.63;;
3259;SDS011;22469;48.150;14.004;2022-10-16T06:11:13;30.53;;;13.00;;
3259;SDS011;22469;48.150;14.004;2022-10-16T06:13:43;31.13;;;11.20;;
3259;SDS011;22469;48.150;14.004;2022-10-16T06:16:12;18.70;;;12.23;;
3259;SDS011;22469;48.150;14.004;2022-10-16T06:18:39;38.53;;;15.30;;
3259;SDS011;22469;48.150;14.004;2022-10-16T06:21:20;34.97;;;12.83;;
3259;SDS011;22469;48.150;14.004;2022-10-16T06:23:53;28.43;;;12.63;;
3259;SDS011;22469;48.150;14.004;2022-10-16T06:26:23;47.53;;;15.30;;
3259;SDS011;22469;48.150;14.004;2022-10-16T06:28:55;23.37;;;15.63;;
3259;SDS011;22469;48.150;14.004;2022-10-16T06:31:25;35.40;;;14.27;;
3259;SDS011;22469;48.150;14.004;2022-10-16T06:33:55;36.03;;;15.87;;
3259;SDS011;22469;48.150;14.004;2022-10-16T06:36:23;55.17;;;16.43;;
3259;SDS011;22469;48.150;14.004;2022-10-16T06:38:51;53.30;;;15.50;;
3259;SDS011;22469;48.150;14.004;2022-10-16T06:41:19;29.00;;;14.40;;
3259;SDS011;22469;48.150;14.004;2022-10-16T06:43:48;32.23;;;14.70;;
3259;SDS011;22469;48.150;14.004;2022-10-16T06:46:17;26.37;;;12.83;;
3259;SDS011;22469;48.150;14.004;2022-10-16T06:48:47;13.60;;;12.30;;
3259;SDS011;22469;48.150;14.004;2022-10-16T06:51:16;38.60;;;13.83;;
3259;SDS011;22469;48.150;14.004;2022-10-16T06:53:47;22.47;;;12.47;;
3259;SDS011;22469;48.150;14.004;2022-10-16T06:56:29;41.00;;;13.23;;
3259;SDS011;22469;48.150;14.004;2022-10-16T06:58:58;29.47;;;12.43;;
3259;SDS011;22469;48.150;14.004;2022-10-16T07:01:26;34.40;;;13.57;;
3259;SDS011;22469;48.150;14.004;2022-10-16T07:03:53;37.23;;;12.70;;
3259;SDS011;22469;48.150;14.004;2022-10-16T07:06:21;45.47;;;15.33;;
3259;SDS011;22469;48.150;14.004;2022-10-16T07:08:51;25.57;;;13.40;;
3259;SDS011;22469;48.150;14.004;2022-10-16T07:11:19;13.43;;;11.00;;
3259;SDS011;22469;48.150;14.004;2022-10-16T07:13:49;18.47;;;11.17;;
3259;SDS011;22469;48.150;14.004;2022-10-16T07:16:28;33.77;;;12.77;;
3259;SDS011;22469;48.150;14.004;2022-10-16T07:18:59;18.20;;;12.23;;
3259;SDS011;22469;48.150;14.004;2022-10-16T07:21:29;15.87;;;12.00;;
3259;SDS011;22469;48.150;14.004;2022-10-16T07:24:03;22.10;;;11.10;;
3259;SDS011;22469;48.150;14.004;2022-10-16T07:26:34;17.17;;;13.40;;
3259;SDS011;22469;48.150;14.004;2022-10-16T07:29:03;19.70;;;12.00;;
3259;SDS011;22469;48.150;14.004;2022-10-16T07:31:30;20.33;;;13.23;;
3259;SDS011;22469;48.150;14.004;2022-10-16T07:33:58;18.30;;;13.50;;
3259;SDS011;22469;48.150;14.004;2022-10-16T07:36:26;14.33;;;12.83;;
3259;SDS011;22469;48.150;14.004;2022-10-16T07:38:54;19.07;;;13.97;;
3259;SDS011;22469;48.150;14.004;2022-10-16T07:41:25;14.80;;;13.30;;
3259;SDS011;22469;48.150;14.004;2022-10-16T07:43:53;16.73;;;14.70;;
3259;SDS011;22469;48.150;14.004;2022-10-16T07:46:22;16.83;;;13.87;;
3259;SDS011;22469;48.150;14.004;2022-10-16T07:48:50;15.77;;;14.17;;
3259;SDS011;22469;48.150;14.004;2022-10-16T07:51:18;14.73;;;13.20;;
3259;SDS011;22469;48.150;14.004;2022-10-16T07:53:48;16.67;;;12.30;;
3259;SDS011;22469;48.150;14.004;2022-10-16T07:56:17;13.17;;;12.03;;
3259;SDS011;22469;48.150;14.004;2022-10-16T07:58:46;15.37;;;13.30;;
3259;SDS011;22469;48.150;14.004;2022-10-16T08:01:16;15.73;;;14.20;;
3259;SDS011;22469;48.150;14.004;2022-10-16T08:03:45;15.07;;;13.40;;
3259;SDS011;22469;48.150;14.004;2022-10-16T08:06:16;13.17;;;12.00;;
3259;SDS011;22469;48.150;14.004;2022-10-16T08:08:50;21.80;;;11.67;;
3259;SDS011;22469;48.150;14.004;2022-10-16T08:11:17;13.60;;;12.50;;
3259;SDS011;22469;48.150;14.004;2022-10-16T08:13:44;13.23;;;11.90;;
3259;SDS011;22469;48.150;14.004;2022-10-16T08:16:11;12.27;;;11.07;;
3259;SDS011;22469;48.150;14.004;2022-10-16T08:18:39;11.90;;;10.90;;
3259;SDS011;22469;48.150;14.004;2022-10-16T08:21:08;11.60;;;10.70;;
3259;SDS011;22469;48.150;14.004;2022-10-16T08:23:46;12.03;;;10.83;;
3259;SDS011;22469;48.150;14.004;2022-10-16T08:26:22;11.10;;;10.10;;
3259;SDS011;22469;48.150;14.004;2022-10-16T08:28:50;10.37;;;9.60;;
3259;SDS011;22469;48.150;14.004;2022-10-16T08:31:18;11.10;;;10.10;;
3259;SDS011;22469;48.150;14.004;2022-10-16T08:33:45;13.73;;;12.43;;
3259;SDS011;22469;48.150;14.004;2022-10-16T08:36:14;13.73;;;12.53;;
3259;SDS011;22469;48.150;14.004;2022-10-16T08:38:42;12.10;;;11.20;;
3259;SDS011;22469;48.150;14.004;2022-10-16T08:47:24;12.57;;;11.47;;
3259;SDS011;22469;48.150;14.004;2022-10-16T08:50:09;10.73;;;9.83;;
3259;SDS011;22469;48.150;14.004;2022-10-16T08:52:40;12.23;;;11.00;;
3259;SDS011;22469;48.150;14.004;2022-10-16T08:55:45;11.13;;;10.17;;
3259;SDS011;22469;48.150;14.004;2022-10-16T08:58:16;11.07;;;10.27;;
3259;SDS011;22469;48.150;14.004;2022-10-16T09:01:01;11.97;;;10.97;;
3259;SDS011;22469;48.150;14.004;2022-10-16T09:07:00;10.23;;;9.43;;
3259;SDS011;22469;48.150;14.004;2022-10-16T09:15:29;9.33;;;8.63;;
3259;SDS011;22469;48.150;14.004;2022-10-16T09:21:15;10.20;;;9.40;;
3259;SDS011;22469;48.150;14.004;2022-10-16T09:23:48;10.50;;;9.63;;
3259;SDS011;22469;48.150;14.004;2022-10-16T09:26:17;11.43;;;10.33;;
3259;SDS011;22469;48.150;14.004;2022-10-16T09:28:46;12.23;;;11.17;;
3259;SDS011;22469;48.150;14.004;2022-10-16T09:31:14;12.63;;;11.53;;
3259;SDS011;22469;48.150;14.004;2022-10-16T09:33:48;12.27;;;11.27;;
3259;SDS011;22469;48.150;14.004;2022-10-16T09:36:20;9.37;;;8.67;;
3259;SDS011;22469;48.150;14.004;2022-10-16T09:38:50;8.90;;;8.20;;
3259;SDS011;22469;48.150;14.004;2022-10-16T09:41:34;10.50;;;9.80;;
3259;SDS011;22469;48.150;14.004;2022-10-16T09:47:23;9.43;;;8.63;;
3259;SDS011;22469;48.150;14.004;2022-10-16T09:49:54;8.27;;;7.63;;
3259;SDS011;22469;48.150;14.004;2022-10-16T09:52:32;8.13;;;7.40;;
3259;SDS011;22469;48.150;14.004;2022-10-16T09:55:12;6.60;;;6.20;;
3259;SDS011;22469;48.150;14.004;2022-10-16T09:57:52;8.30;;;7.57;;
3259;SDS011;22469;48.150;14.004;2022-10-16T10:00:21;7.90;;;7.30;;
3259;SDS011;22469;48.150;14.004;2022-10-16T10:02:50;8.40;;;7.80;;
3259;SDS011;22469;48.150;14.004;2022-10-16T10:05:22;6.83;;;6.30;;
3259;SDS011;22469;48.150;14.004;2022-10-16T10:07:54;8.00;;;7.30;;
3259;SDS011;22469;48.150;14.004;2022-10-16T10:10:27;7.43;;;6.83;;
3259;SDS011;22469;48.150;14.004;2022-10-16T10:12:57;6.83;;;6.40;;
3259;SDS011;22469;48.150;14.004;2022-10-16T10:15:25;7.50;;;7.00;;
3259;SDS011;22469;48.150;14.004;2022-10-16T10:18:00;6.10;;;5.60;;
3259;SDS011;22469;48.150;14.004;2022-10-16T10:20:30;6.03;;;5.60;;
3259;SDS011;22469;48.150;14.004;2022-10-16T10:23:01;6.13;;;5.63;;
3259;SDS011;22469;48.150;14.004;2022-10-16T10:25:52;5.77;;;5.27;;
3259;SDS011;22469;48.150;14.004;2022-10-16T10:31:49;6.73;;;6.13;;
3259;SDS011;22469;48.150;14.004;2022-10-16T10:34:35;5.17;;;4.80;;
3259;SDS011;22469;48.150;14.004;2022-10-16T10:38:02;5.33;;;4.90;;
3259;SDS011;22469;48.150;14.004;2022-10-16T10:44:04;5.60;;;5.10;;
3259;SDS011;22469;48.150;14.004;2022-10-16T10:46:31;5.00;;;4.63;;
3259;SDS011;22469;48.150;14.004;2022-10-16T11:03:46;5.03;;;4.70;;
3259;SDS011;22469;48.150;14.004;2022-10-16T11:06:53;4.30;;;4.00;;
3259;SDS011;22469;48.150;14.004;2022-10-16T11:12:18;4.70;;;4.27;;
3259;SDS011;22469;48.150;14.004;2022-10-16T11:15:37;5.03;;;4.30;;
3259;SDS011;22469;48.150;14.004;2022-10-16T11:17:49;4.73;;;4.47;;
3259;SDS011;22469;48.150;14.004;2022-10-16T11:20:24;4.90;;;4.50;;
3259;SDS011;22469;48.150;14.004;2022-10-16T11:25:49;4.70;;;4.23;;
3259;SDS011;22469;48.150;14.004;2022-10-16T11:34:19;3.43;;;3.23;;
3259;SDS011;22469;48.150;14.004;2022-10-16T11:37:11;9.17;;;3.53;;
3259;SDS011;22469;48.150;14.004;2022-10-16T11:39:54;4.10;;;3.37;;
3259;SDS011;22469;48.150;14.004;2022-10-16T11:48:02;3.50;;;3.30;;
3259;SDS011;22469;48.150;14.004;2022-10-16T11:50:52;2.60;;;2.40;;
3259;SDS011;22469;48.150;14.004;2022-10-16T11:56:12;2.97;;;2.80;;
3259;SDS011;22469;48.150;14.004;2022-10-16T11:58:51;2.93;;;2.73;;
3259;SDS011;22469;48.150;14.004;2022-10-16T12:01:40;3.20;;;2.90;;
3259;SDS011;22469;48.150;14.004;2022-10-16T12:04:31;2.47;;;2.37;;
3259;SDS011;22469;48.150;14.004;2022-10-16T12:07:12;2.83;;;2.73;;
3259;SDS011;22469;48.150;14.004;2022-10-16T12:09:46;2.97;;;2.73;;
3259;SDS011;22469;48.150;14.004;2022-10-16T12:15:24;3.20;;;3.00;;
3259;SDS011;22469;48.150;14.004;2022-10-16T12:18:22;3.17;;;2.37;;
3259;SDS011;22469;48.150;14.004;2022-10-16T12:20:55;3.10;;;2.80;;
3259;SDS011;22469;48.150;14.004;2022-10-16T12:23:32;2.63;;;2.43;;
3259;SDS011;22469;48.150;14.004;2022-10-16T12:26:04;11.93;;;2.77;;
3259;SDS011;22469;48.150;14.004;2022-10-16T12:28:32;4.07;;;2.60;;
3259;SDS011;22469;48.150;14.004;2022-10-16T12:31:04;2.40;;;2.30;;
3259;SDS011;22469;48.150;14.004;2022-10-16T12:33:35;2.67;;;2.57;;
3259;SDS011;22469;48.150;14.004;2022-10-16T12:36:49;3.00;;;2.70;;
3259;SDS011;22469;48.150;14.004;2022-10-16T12:39:00;2.77;;;2.67;;
3259;SDS011;22469;48.150;14.004;2022-10-16T12:41:32;2.40;;;2.30;;
3259;SDS011;22469;48.150;14.004;2022-10-16T12:44:20;2.57;;;2.40;;
3259;SDS011;22469;48.150;14.004;2022-10-16T12:46:50;8.50;;;3.30;;
3259;SDS011;22469;48.150;14.004;2022-10-16T12:49:21;3.03;;;2.93;;
3259;SDS011;22469;48.150;14.004;2022-10-16T12:51:55;3.13;;;2.70;;
3259;SDS011;22469;48.150;14.004;2022-10-16T12:54:30;2.50;;;2.40;;
3259;SDS011;22469;48.150;14.004;2022-10-16T13:20:59;2.80;;;2.60;;
3259;SDS011;22469;48.150;14.004;2022-10-16T13:23:34;2.17;;;2.10;;
3259;SDS011;22469;48.150;14.004;2022-10-16T13:29:05;2.07;;;1.97;;
3259;SDS011;22469;48.150;14.004;2022-10-16T13:31:33;2.13;;;2.03;;
3259;SDS011;22469;48.150;14.004;2022-10-16T13:34:00;2.47;;;2.00;;
3259;SDS011;22469;48.150;14.004;2022-10-16T13:36:43;2.57;;;2.37;;
3259;SDS011;22469;48.150;14.004;2022-10-16T13:44:39;4.20;;;2.20;;
3259;SDS011;22469;48.150;14.004;2022-10-16T13:47:18;2.80;;;2.60;;
3259;SDS011;22469;48.150;14.004;2022-10-16T13:52:37;2.40;;;2.30;;
3259;SDS011;22469;48.150;14.004;2022-10-16T13:55:15;2.63;;;2.53;;
3259;SDS011;22469;48.150;14.004;2022-10-16T13:57:44;3.13;;;2.80;;
3259;SDS011;22469;48.150;14.004;2022-10-16T14:02:51;2.30;;;2.20;;
3259;SDS011;22469;48.150;14.004;2022-10-16T14:05:25;2.33;;;2.20;;
3259;SDS011;22469;48.150;14.004;2022-10-16T14:07:52;2.10;;;1.90;;
3259;SDS011;22469;48.150;14.004;2022-10-16T14:10:22;2.07;;;1.97;;
3259;SDS011;22469;48.150;14.004;2022-10-16T14:12:57;2.17;;;2.07;;
3259;SDS011;22469;48.150;14.004;2022-10-16T14:15:29;2.20;;;2.10;;
3259;SDS011;22469;48.150;14.004;2022-10-16T14:17:58;2.03;;;1.93;;
3259;SDS011;22469;48.150;14.004;2022-10-16T14:20:27;2.10;;;2.00;;
3259;SDS011;22469;48.150;14.004;2022-10-16T14:22:58;2.37;;;2.27;;
3259;SDS011;22469;48.150;14.004;2022-10-16T14:25:31;4.23;;;2.10;;
3259;SDS011;22469;48.150;14.004;2022-10-16T14:28:03;3.80;;;2.13;;
3259;SDS011;22469;48.150;14.004;2022-10-16T14:30:36;2.60;;;2.20;;
3259;SDS011;22469;48.150;14.004;2022-10-16T14:33:18;4.20;;;2.07;;
3259;SDS011;22469;48.150;14.004;2022-10-16T14:36:25;2.10;;;1.90;;
3259;SDS011;22469;48.150;14.004;2022-10-16T14:39:00;2.30;;;1.90;;
3259;SDS011;22469;48.150;14.004;2022-10-16T14:41:35;1.87;;;1.87;;
3259;SDS011;22469;48.150;14.004;2022-10-16T14:44:11;2.33;;;2.10;;
3259;SDS011;22469;48.150;14.004;2022-10-16T14:46:39;2.07;;;1.97;;
3259;SDS011;22469;48.150;14.004;2022-10-16T14:51:37;1.80;;;1.70;;
3259;SDS011;22469;48.150;14.004;2022-10-16T14:54:09;2.60;;;2.40;;
3259;SDS011;22469;48.150;14.004;2022-10-16T14:56:53;2.00;;;1.90;;
3259;SDS011;22469;48.150;14.004;2022-10-16T14:59:33;2.03;;;1.83;;
3259;SDS011;22469;48.150;14.004;2022-10-16T15:02:13;2.60;;;2.40;;
3259;SDS011;22469;48.150;14.004;2022-10-16T15:04:48;2.03;;;1.83;;
3259;SDS011;22469;48.150;14.004;2022-10-16T15:07:16;3.20;;;2.23;;
3259;SDS011;22469;48.150;14.004;2022-10-16T15:09:43;3.33;;;2.33;;
3259;SDS011;22469;48.150;14.004;2022-10-16T15:12:14;2.50;;;2.40;;
3259;SDS011;22469;48.150;14.004;2022-10-16T15:14:43;3.27;;;3.07;;
3259;SDS011;22469;48.150;14.004;2022-10-16T15:17:10;1.93;;;1.83;;
3259;SDS011;22469;48.150;14.004;2022-10-16T15:19:37;2.83;;;2.63;;
3259;SDS011;22469;48.150;14.004;2022-10-16T15:22:04;2.97;;;2.57;;
3259;SDS011;22469;48.150;14.004;2022-10-16T15:24:31;3.73;;;3.43;;
3259;SDS011;22469;48.150;14.004;2022-10-16T15:26:58;2.77;;;2.57;;
3259;SDS011;22469;48.150;14.004;2022-10-16T15:29:25;4.10;;;2.10;;
3259;SDS011;22469;48.150;14.004;2022-10-16T15:31:52;3.20;;;2.87;;
3259;SDS011;22469;48.150;14.004;2022-10-16T15:34:19;2.63;;;2.40;;
3259;SDS011;22469;48.150;14.004;2022-10-16T15:36:46;2.33;;;2.10;;
3259;SDS011;22469;48.150;14.004;2022-10-16T15:39:14;2.70;;;2.40;;
3259;SDS011;22469;48.150;14.004;2022-10-16T15:41:44;8.00;;;2.70;;
3259;SDS011;22469;48.150;14.004;2022-10-16T15:44:19;2.30;;;2.20;;
3259;SDS011;22469;48.150;14.004;2022-10-16T15:46:49;3.80;;;3.13;;
3259;SDS011;22469;48.150;14.004;2022-10-16T15:49:16;6.10;;;2.90;;
3259;SDS011;22469;48.150;14.004;2022-10-16T15:51:43;4.63;;;2.77;;
3259;SDS011;22469;48.150;14.004;2022-10-16T15:54:10;12.27;;;6.40;;
3259;SDS011;22469;48.150;14.004;2022-10-16T15:56:37;7.60;;;3.50;;
3259;SDS011;22469;48.150;14.004;2022-10-16T15:59:04;6.63;;;3.23;;
3259;SDS011;22469;48.150;14.004;2022-10-16T16:01:32;5.63;;;2.67;;
3259;SDS011;22469;48.150;14.004;2022-10-16T16:04:01;5.40;;;3.87;;
3259;SDS011;22469;48.150;14.004;2022-10-16T16:06:45;5.13;;;4.20;;
3259;SDS011;22469;48.150;14.004;2022-10-16T16:09:13;5.77;;;4.07;;
3259;SDS011;22469;48.150;14.004;2022-10-16T16:11:41;6.30;;;4.63;;
3259;SDS011;22469;48.150;14.004;2022-10-16T16:14:12;5.60;;;4.60;;
3259;SDS011;22469;48.150;14.004;2022-10-16T16:16:40;5.53;;;4.80;;
3259;SDS011;22469;48.150;14.004;2022-10-16T16:19:08;5.97;;;5.40;;
3259;SDS011;22469;48.150;14.004;2022-10-16T16:21:37;4.23;;;3.93;;
3259;SDS011;22469;48.150;14.004;2022-10-16T16:24:04;5.67;;;5.20;;
3259;SDS011;22469;48.150;14.004;2022-10-16T16:26:35;6.70;;;5.40;;
3259;SDS011;22469;48.150;14.004;2022-10-16T16:29:06;5.27;;;4.80;;
3259;SDS011;22469;48.150;14.004;2022-10-16T16:31:34;6.73;;;5.10;;
3259;SDS011;22469;48.150;14.004;2022-10-16T16:34:01;8.00;;;4.50;;
3259;SDS011;22469;48.150;14.004;2022-10-16T16:36:29;6.03;;;4.33;;
3259;SDS011;22469;48.150;14.004;2022-10-16T16:38:56;5.67;;;4.43;;
3259;SDS011;22469;48.150;14.004;2022-10-16T16:41:25;6.30;;;4.27;;
3259;SDS011;22469;48.150;14.004;2022-10-16T16:43:54;4.73;;;4.10;;
3259;SDS011;22469;48.150;14.004;2022-10-16T16:46:27;4.73;;;4.33;;
3259;SDS011;22469;48.150;14.004;2022-10-16T16:48:54;3.60;;;3.40;;
3259;SDS011;22469;48.150;14.004;2022-10-16T16:51:24;4.43;;;3.90;;
3259;SDS011;22469;48.150;14.004;2022-10-16T16:53:52;5.50;;;4.53;;
3259;SDS011;22469;48.150;14.004;2022-10-16T16:56:21;5.73;;;4.27;;
3259;SDS011;22469;48.150;14.004;2022-10-16T16:58:50;24.07;;;10.30;;
3259;SDS011;22469;48.150;14.004;2022-10-16T17:01:22;34.73;;;19.70;;
3259;SDS011;22469;48.150;14.004;2022-10-16T17:03:52;32.17;;;18.67;;